Grand Island, NY

3:47 PM EDT on August 25, 2016 (GMT -0400)
Park Village | | Change Station

Elev 580 ft 43.02 °N, 78.85 °W | Updated 7 minutes ago

Mostly Cloudy
Mostly Cloudy
85.6 °F
Feels Like 109 °F
N
8.9
Wind Variable Wind from WSW
Gusts 14.8 mph

Today
High -- | Low -- °F
--% Chance of Precip.
Yesterday
High -- | Low -- °F
Precip. -- in
Pressure 29.93 in
Visibility 10.0 miles
Clouds Few 3000 ft
Scattered Clouds 4000 ft
Scattered Clouds 14000 ft
Mostly Cloudy 22000 ft
Heat Index 109 °F
Dew Point 85 °F
Humidity 99%
Rainfall 0.27 in
Snow Depth Not available.
6:33 AM 8:01 PM
Last Quarter, 42% visible
METAR KIAG 251753Z 21015KT 10SM FEW030 SCT040 SCT140 BKN220 29/22 A2995 RMK AO2 WSHFT 1711 SLP133 MDT CU NE-E 60000 T02940222 10306 20239 56005
Pressure 29.93 in
Visibility 10.0 miles
Clouds Few 3000 ft
Scattered Clouds 4000 ft
Scattered Clouds 14000 ft
Mostly Cloudy 22000 ft
Heat Index 109 °F
Dew Point 85 °F
Humidity 99%
Rainfall 0.27 in
Snow Depth Not available.
6:33 AM 8:01 PM
Last Quarter, 42% visible
METAR KIAG 251753Z 21015KT 10SM FEW030 SCT040 SCT140 BKN220 29/22 A2995 RMK AO2 WSHFT 1711 SLP133 MDT CU NE-E 60000 T02940222 10306 20239 56005
A tropical disturbance pushing toward the Bahamas, is expected to develop into a tropical depression or storm, and will likely target Florida and the Gulf Coast this weekend into next week.

Right now, the disturbance remains a broad area of low pressure pushing through the Dominican Republic and Haiti, headed toward the southeast Bahamas. Rainfall totals over 3 inches (with locally higher amounts) are expected in HispaƱiola, particularly over elevated terrain.

10-Day Weather Forecast

Almanac

Astronomy

Aug. 25, 2016 Rise Set
Actual Time
Civil Twilight
Nautical Twilight
Astronomical Twilight
Moon
Length of Visible Light
Length of Day
Tomorrow will be .
, % of the Moon is Illuminated

Today's Extremes

State Highs State Lows

Community

WunderPhotos

Upload Photos

1,934,907 photos uploaded!

WunderBlog® & News

Nearby

Air Quality

  Air Quality AQ Index Pollutant
Not available.

Snow Depth

Station Depth Elevation

Earthquake Activity

City Distance Mag. Time & Date
Minimum magnitude displayed is 2.5.

Coastal Water Temperatures

Place Temperature

Stations

Nearby Weather Stations

Station Location Temp. Windchill Dew Point Humidity Wind Precip. Elev Updated Type
                   

Watches & Warnings

There are currently no watches in effect.